sensor_id;sensor_type;location;lat;lon;timestamp;pressure;altitude;pressure_sealevel;temperature
34125;BMP280;20110;53.120;5.786;2023-04-16T00:00:51;102273.50;;;15.49
34125;BMP280;20110;53.120;5.786;2023-04-16T00:03:17;102226.28;;;15.14
34125;BMP280;20110;53.120;5.786;2023-04-16T00:05:43;102272.25;;;15.50
34125;BMP280;20110;53.120;5.786;2023-04-16T00:08:09;102246.47;;;15.34
34125;BMP280;20110;53.120;5.786;2023-04-16T00:10:35;102279.59;;;15.50
34125;BMP280;20110;53.120;5.786;2023-04-16T00:13:00;102254.81;;;15.44
34125;BMP280;20110;53.120;5.786;2023-04-16T00:15:26;102275.09;;;15.58
34125;BMP280;20110;53.120;5.786;2023-04-16T00:17:52;102282.91;;;15.56
34125;BMP280;20110;53.120;5.786;2023-04-16T00:20:18;102213.41;;;15.13
34125;BMP280;20110;53.120;5.786;2023-04-16T00:22:45;102263.34;;;15.42
34125;BMP280;20110;53.120;5.786;2023-04-16T00:25:12;102235.41;;;15.24
34125;BMP280;20110;53.120;5.786;2023-04-16T00:27:38;102270.59;;;15.47
34125;BMP280;20110;53.120;5.786;2023-04-16T00:30:05;102274.22;;;15.50
34125;BMP280;20110;53.120;5.786;2023-04-16T00:32:32;102271.03;;;15.51
34125;BMP280;20110;53.120;5.786;2023-04-16T00:34:57;102227.16;;;15.22
34125;BMP280;20110;53.120;5.786;2023-04-16T00:37:23;102263.34;;;15.42
34125;BMP280;20110;53.120;5.786;2023-04-16T00:39:49;102270.28;;;15.51
34125;BMP280;20110;53.120;5.786;2023-04-16T00:42:15;102277.44;;;15.61
34125;BMP280;20110;53.120;5.786;2023-04-16T00:44:41;102282.53;;;15.65
34125;BMP280;20110;53.120;5.786;2023-04-16T00:47:07;102267.97;;;15.60
34125;BMP280;20110;53.120;5.786;2023-04-16T00:49:34;102185.06;;;15.04
34125;BMP280;20110;53.120;5.786;2023-04-16T00:52:00;102273.66;;;15.70
34125;BMP280;20110;53.120;5.786;2023-04-16T00:54:28;102251.28;;;15.54
34125;BMP280;20110;53.120;5.786;2023-04-16T00:56:55;102277.81;;;15.71
34125;BMP280;20110;53.120;5.786;2023-04-16T00:59:21;102279.03;;;15.70
34125;BMP280;20110;53.120;5.786;2023-04-16T01:01:47;102277.88;;;15.65
34125;BMP280;20110;53.120;5.786;2023-04-16T01:04:13;102274.94;;;15.69
34125;BMP280;20110;53.120;5.786;2023-04-16T01:06:39;102261.97;;;15.54
34125;BMP280;20110;53.120;5.786;2023-04-16T01:09:05;102289.75;;;15.70
34125;BMP280;20110;53.120;5.786;2023-04-16T01:11:31;102280.88;;;15.75
34125;BMP280;20110;53.120;5.786;2023-04-16T01:13:57;102284.94;;;15.82
34125;BMP280;20110;53.120;5.786;2023-04-16T01:16:23;102257.19;;;15.66
34125;BMP280;20110;53.120;5.786;2023-04-16T01:18:48;102270.72;;;15.73
34125;BMP280;20110;53.120;5.786;2023-04-16T01:21:14;102277.28;;;15.72
34125;BMP280;20110;53.120;5.786;2023-04-16T01:23:40;102273.25;;;15.66
34125;BMP280;20110;53.120;5.786;2023-04-16T01:26:06;102267.47;;;15.62
34125;BMP280;20110;53.120;5.786;2023-04-16T01:28:32;102236.84;;;15.44
34125;BMP280;20110;53.120;5.786;2023-04-16T01:30:57;102257.84;;;15.53
34125;BMP280;20110;53.120;5.786;2023-04-16T01:33:23;102290.19;;;15.74
34125;BMP280;20110;53.120;5.786;2023-04-16T01:35:49;102240.94;;;15.45
34125;BMP280;20110;53.120;5.786;2023-04-16T01:38:15;102283.16;;;15.71
34125;BMP280;20110;53.120;5.786;2023-04-16T01:40:41;102260.97;;;15.57
34125;BMP280;20110;53.120;5.786;2023-04-16T01:43:07;102288.00;;;15.72
34125;BMP280;20110;53.120;5.786;2023-04-16T01:45:34;102256.34;;;15.58
34125;BMP280;20110;53.120;5.786;2023-04-16T01:48:00;102277.28;;;15.72
34125;BMP280;20110;53.120;5.786;2023-04-16T01:50:27;102271.53;;;15.68
34125;BMP280;20110;53.120;5.786;2023-04-16T01:52:54;102245.19;;;15.54
34125;BMP280;20110;53.120;5.786;2023-04-16T01:55:20;102279.66;;;15.76
34125;BMP280;20110;53.120;5.786;2023-04-16T01:57:46;102286.41;;;15.83
34125;BMP280;20110;53.120;5.786;2023-04-16T02:00:12;102249.34;;;15.55
34125;BMP280;20110;53.120;5.786;2023-04-16T02:02:40;102278.47;;;15.77
34125;BMP280;20110;53.120;5.786;2023-04-16T02:05:06;102282.34;;;15.76
34125;BMP280;20110;53.120;5.786;2023-04-16T02:07:31;102266.28;;;15.76
34125;BMP280;20110;53.120;5.786;2023-04-16T02:09:57;102278.94;;;15.75
34125;BMP280;20110;53.120;5.786;2023-04-16T02:12:23;102284.94;;;15.82
34125;BMP280;20110;53.120;5.786;2023-04-16T02:14:49;102251.84;;;15.66
34125;BMP280;20110;53.120;5.786;2023-04-16T02:17:15;102228.50;;;15.48
34125;BMP280;20110;53.120;5.786;2023-04-16T02:19:41;102269.44;;;15.74
34125;BMP280;20110;53.120;5.786;2023-04-16T02:22:08;102281.63;;;15.75
34125;BMP280;20110;53.120;5.786;2023-04-16T02:24:34;102262.09;;;15.62
34125;BMP280;20110;53.120;5.786;2023-04-16T02:27:00;102272.03;;;15.67
34125;BMP280;20110;53.120;5.786;2023-04-16T02:29:26;102272.44;;;15.71
34125;BMP280;20110;53.120;5.786;2023-04-16T02:31:51;102264.88;;;15.56
34125;BMP280;20110;53.120;5.786;2023-04-16T02:34:18;102181.50;;;14.96
34125;BMP280;20110;53.120;5.786;2023-04-16T02:36:44;102240.72;;;15.43
34125;BMP280;20110;53.120;5.786;2023-04-16T02:39:10;102185.25;;;15.06
34125;BMP280;20110;53.120;5.786;2023-04-16T02:41:36;102277.06;;;15.70
34125;BMP280;20110;53.120;5.786;2023-04-16T02:44:03;102279.66;;;15.76
34125;BMP280;20110;53.120;5.786;2023-04-16T02:46:29;102285.53;;;15.74
34125;BMP280;20110;53.120;5.786;2023-04-16T02:48:54;102283.50;;;15.81
34125;BMP280;20110;53.120;5.786;2023-04-16T02:51:22;102243.22;;;15.54
34125;BMP280;20110;53.120;5.786;2023-04-16T02:53:47;102283.22;;;15.84
34125;BMP280;20110;53.120;5.786;2023-04-16T02:56:13;102278.47;;;15.77
34125;BMP280;20110;53.120;5.786;2023-04-16T02:58:39;102280.25;;;15.88
34125;BMP280;20110;53.120;5.786;2023-04-16T03:01:05;102281.03;;;15.83
34125;BMP280;20110;53.120;5.786;2023-04-16T03:03:31;102291.16;;;15.90
34125;BMP280;20110;53.120;5.786;2023-04-16T03:05:56;102286.75;;;15.92
34125;BMP280;20110;53.120;5.786;2023-04-16T03:08:22;102272.78;;;15.81
34125;BMP280;20110;53.120;5.786;2023-04-16T03:10:48;102297.47;;;15.92
34125;BMP280;20110;53.120;5.786;2023-04-16T03:13:14;102262.66;;;15.73
34125;BMP280;20110;53.120;5.786;2023-04-16T03:15:40;102294.97;;;15.94
34125;BMP280;20110;53.120;5.786;2023-04-16T03:18:05;102280.25;;;15.88
34125;BMP280;20110;53.120;5.786;2023-04-16T03:20:32;102278.56;;;15.85
34125;BMP280;20110;53.120;5.786;2023-04-16T03:22:57;102287.66;;;15.95
34125;BMP280;20110;53.120;5.786;2023-04-16T03:25:23;102290.56;;;15.97
34125;BMP280;20110;53.120;5.786;2023-04-16T03:27:49;102290.34;;;15.95
34125;BMP280;20110;53.120;5.786;2023-04-16T03:30:15;102300.25;;;16.00
34125;BMP280;20110;53.120;5.786;2023-04-16T03:32:41;102285.59;;;15.88
34125;BMP280;20110;53.120;5.786;2023-04-16T03:35:08;102295.59;;;15.87
34125;BMP280;20110;53.120;5.786;2023-04-16T03:37:34;102310.97;;;16.00
34125;BMP280;20110;53.120;5.786;2023-04-16T03:40:01;102301.78;;;15.95
34125;BMP280;20110;53.120;5.786;2023-04-16T03:42:26;102307.47;;;16.05
34125;BMP280;20110;53.120;5.786;2023-04-16T03:44:52;102310.47;;;16.01
34125;BMP280;20110;53.120;5.786;2023-04-16T03:47:19;102301.28;;;15.97
34125;BMP280;20110;53.120;5.786;2023-04-16T03:49:45;102322.84;;;16.04
34125;BMP280;20110;53.120;5.786;2023-04-16T03:52:11;102307.88;;;15.96
34125;BMP280;20110;53.120;5.786;2023-04-16T03:54:37;102315.63;;;15.99
34125;BMP280;20110;53.120;5.786;2023-04-16T03:57:03;102325.72;;;16.06
34125;BMP280;20110;53.120;5.786;2023-04-16T03:59:28;102314.06;;;16.04
34125;BMP280;20110;53.120;5.786;2023-04-16T04:01:54;102312.00;;;15.97
34125;BMP280;20110;53.120;5.786;2023-04-16T04:04:20;102264.06;;;15.61
34125;BMP280;20110;53.120;5.786;2023-04-16T04:06:46;102307.44;;;15.92
34125;BMP280;20110;53.120;5.786;2023-04-16T04:09:12;102292.47;;;15.83
34125;BMP280;20110;53.120;5.786;2023-04-16T04:11:38;102293.56;;;15.93
34125;BMP280;20110;53.120;5.786;2023-04-16T04:14:04;102324.72;;;16.09
34125;BMP280;20110;53.120;5.786;2023-04-16T04:16:31;102301.88;;;15.90
34125;BMP280;20110;53.120;5.786;2023-04-16T04:18:57;102334.94;;;16.11
34125;BMP280;20110;53.120;5.786;2023-04-16T04:21:26;102264.22;;;15.69
34125;BMP280;20110;53.120;5.786;2023-04-16T04:23:53;102322.31;;;16.06
34125;BMP280;20110;53.120;5.786;2023-04-16T04:26:19;102305.50;;;15.92
34125;BMP280;20110;53.120;5.786;2023-04-16T04:28:46;102333.97;;;16.08
34125;BMP280;20110;53.120;5.786;2023-04-16T04:31:12;102291.34;;;15.78
34125;BMP280;20110;53.120;5.786;2023-04-16T04:33:38;102337.63;;;16.11
34125;BMP280;20110;53.120;5.786;2023-04-16T04:36:05;102325.72;;;16.06
34125;BMP280;20110;53.120;5.786;2023-04-16T04:38:31;102331.63;;;16.18
34125;BMP280;20110;53.120;5.786;2023-04-16T04:40:58;102336.06;;;16.15
34125;BMP280;20110;53.120;5.786;2023-04-16T04:43:24;102340.47;;;16.00
34125;BMP280;20110;53.120;5.786;2023-04-16T04:45:50;102345.22;;;16.07
34125;BMP280;20110;53.120;5.786;2023-04-16T04:48:15;102334.47;;;15.94
34125;BMP280;20110;53.120;5.786;2023-04-16T04:50:43;102341.19;;;16.00
34125;BMP280;20110;53.120;5.786;2023-04-16T04:53:09;102336.84;;;15.97
34125;BMP280;20110;53.120;5.786;2023-04-16T04:55:39;102330.53;;;15.95
34125;BMP280;20110;53.120;5.786;2023-04-16T04:58:05;102350.88;;;16.03
34125;BMP280;20110;53.120;5.786;2023-04-16T05:00:33;102337.78;;;16.00
34125;BMP280;20110;53.120;5.786;2023-04-16T05:03:03;102333.22;;;15.95
34125;BMP280;20110;53.120;5.786;2023-04-16T05:05:29;102351.31;;;16.07
34125;BMP280;20110;53.120;5.786;2023-04-16T05:07:55;102336.53;;;16.01
34125;BMP280;20110;53.120;5.786;2023-04-16T05:10:20;102350.78;;;16.09
34125;BMP280;20110;53.120;5.786;2023-04-16T05:12:47;102342.31;;;16.05
34125;BMP280;20110;53.120;5.786;2023-04-16T05:15:13;102341.59;;;16.04
34125;BMP280;20110;53.120;5.786;2023-04-16T05:17:39;102341.59;;;16.04
34125;BMP280;20110;53.120;5.786;2023-04-16T05:20:10;102352.25;;;16.10
34125;BMP280;20110;53.120;5.786;2023-04-16T05:22:35;102356.38;;;16.11
34125;BMP280;20110;53.120;5.786;2023-04-16T05:25:02;102353.47;;;16.09
34125;BMP280;20110;53.120;5.786;2023-04-16T05:27:28;102342.19;;;15.97
34125;BMP280;20110;53.120;5.786;2023-04-16T05:29:54;102345.31;;;16.01
34125;BMP280;20110;53.120;5.786;2023-04-16T05:32:19;102371.22;;;16.12
34125;BMP280;20110;53.120;5.786;2023-04-16T05:34:45;102358.53;;;16.12
34125;BMP280;20110;53.120;5.786;2023-04-16T05:37:11;102335.81;;;16.00
34125;BMP280;20110;53.120;5.786;2023-04-16T05:39:37;102351.22;;;16.13
34125;BMP280;20110;53.120;5.786;2023-04-16T05:42:03;102329.44;;;16.03
34125;BMP280;20110;53.120;5.786;2023-04-16T05:44:28;102357.72;;;16.17
34125;BMP280;20110;53.120;5.786;2023-04-16T05:46:54;102369.09;;;16.24
34125;BMP280;20110;53.120;5.786;2023-04-16T05:49:20;102363.78;;;16.18
34125;BMP280;20110;53.120;5.786;2023-04-16T05:51:47;102373.28;;;16.19
34125;BMP280;20110;53.120;5.786;2023-04-16T05:54:13;102357.81;;;16.12
34125;BMP280;20110;53.120;5.786;2023-04-16T05:56:39;102362.66;;;16.13
34125;BMP280;20110;53.120;5.786;2023-04-16T05:59:05;102370.03;;;16.26
34125;BMP280;20110;53.120;5.786;2023-04-16T06:01:32;102366.63;;;16.26
34125;BMP280;20110;53.120;5.786;2023-04-16T06:03:58;102382.09;;;16.33
34125;BMP280;20110;53.120;5.786;2023-04-16T06:06:24;102381.66;;;16.29
34125;BMP280;20110;53.120;5.786;2023-04-16T06:08:51;102323.44;;;15.97
34125;BMP280;20110;53.120;5.786;2023-04-16T06:11:17;102389.13;;;16.36
34125;BMP280;20110;53.120;5.786;2023-04-16T06:13:43;102382.19;;;16.27
34125;BMP280;20110;53.120;5.786;2023-04-16T06:16:09;102385.06;;;16.29
34125;BMP280;20110;53.120;5.786;2023-04-16T06:18:35;102395.50;;;16.33
34125;BMP280;20110;53.120;5.786;2023-04-16T06:21:02;102389.59;;;16.21
34125;BMP280;20110;53.120;5.786;2023-04-16T06:23:28;102406.22;;;16.33
34125;BMP280;20110;53.120;5.786;2023-04-16T06:25:54;102408.47;;;16.29
34125;BMP280;20110;53.120;5.786;2023-04-16T06:28:20;102417.56;;;16.26
34125;BMP280;20110;53.120;5.786;2023-04-16T06:30:46;102404.53;;;16.16
34125;BMP280;20110;53.120;5.786;2023-04-16T06:33:12;102400.78;;;16.06
34125;BMP280;20110;53.120;5.786;2023-04-16T06:35:38;102412.16;;;16.12
34125;BMP280;20110;53.120;5.786;2023-04-16T06:38:04;102421.69;;;16.27
34125;BMP280;20110;53.120;5.786;2023-04-16T06:40:30;102417.25;;;16.29
34125;BMP280;20110;53.120;5.786;2023-04-16T06:42:56;102407.66;;;16.21
34125;BMP280;20110;53.120;5.786;2023-04-16T06:45:22;102380.88;;;16.02
34125;BMP280;20110;53.120;5.786;2023-04-16T06:47:47;102419.84;;;16.35
34125;BMP280;20110;53.120;5.786;2023-04-16T06:50:14;102411.47;;;16.25
34125;BMP280;20110;53.120;5.786;2023-04-16T06:52:40;102424.72;;;16.36
34125;BMP280;20110;53.120;5.786;2023-04-16T06:55:06;102437.50;;;16.43
34125;BMP280;20110;53.120;5.786;2023-04-16T06:57:35;102423.75;;;16.34
34125;BMP280;20110;53.120;5.786;2023-04-16T07:00:04;102437.19;;;16.47
34125;BMP280;20110;53.120;5.786;2023-04-16T07:02:30;102441.84;;;16.46
34125;BMP280;20110;53.120;5.786;2023-04-16T07:04:56;102446.63;;;16.53
34125;BMP280;20110;53.120;5.786;2023-04-16T07:07:21;102429.69;;;16.45
34125;BMP280;20110;53.120;5.786;2023-04-16T07:09:47;102429.16;;;16.47
34125;BMP280;20110;53.120;5.786;2023-04-16T07:12:13;102406.03;;;16.31
34125;BMP280;20110;53.120;5.786;2023-04-16T07:14:40;102440.44;;;16.59
34125;BMP280;20110;53.120;5.786;2023-04-16T07:17:06;102425.16;;;16.53
34125;BMP280;20110;53.120;5.786;2023-04-16T07:19:31;102406.56;;;16.42
34125;BMP280;20110;53.120;5.786;2023-04-16T07:22:02;102447.19;;;16.78
34125;BMP280;20110;53.120;5.786;2023-04-16T07:24:28;102415.69;;;16.66
34125;BMP280;20110;53.120;5.786;2023-04-16T07:26:54;102452.44;;;16.84
34125;BMP280;20110;53.120;5.786;2023-04-16T07:29:20;102433.47;;;16.69
34125;BMP280;20110;53.120;5.786;2023-04-16T07:31:46;102412.28;;;16.52
34125;BMP280;20110;53.120;5.786;2023-04-16T07:34:11;102442.63;;;16.73
34125;BMP280;20110;53.120;5.786;2023-04-16T07:36:37;102462.56;;;16.78
34125;BMP280;20110;53.120;5.786;2023-04-16T07:39:04;102446.22;;;16.63
34125;BMP280;20110;53.120;5.786;2023-04-16T07:41:31;102475.88;;;16.83
34125;BMP280;20110;53.120;5.786;2023-04-16T07:43:57;102460.50;;;16.84
34125;BMP280;20110;53.120;5.786;2023-04-16T07:46:23;102444.81;;;16.75
34125;BMP280;20110;53.120;5.786;2023-04-16T07:48:49;102457.63;;;16.82
34125;BMP280;20110;53.120;5.786;2023-04-16T07:51:16;102427.56;;;16.70
34125;BMP280;20110;53.120;5.786;2023-04-16T07:53:42;102419.09;;;16.66
34125;BMP280;20110;53.120;5.786;2023-04-16T07:56:08;102473.13;;;17.15
34125;BMP280;20110;53.120;5.786;2023-04-16T07:58:34;102479.63;;;17.20
34125;BMP280;20110;53.120;5.786;2023-04-16T08:01:00;102442.88;;;17.02
34125;BMP280;20110;53.120;5.786;2023-04-16T08:03:26;102462.91;;;17.14
34125;BMP280;20110;53.120;5.786;2023-04-16T08:05:52;102457.00;;;17.15
34125;BMP280;20110;53.120;5.786;2023-04-16T08:08:18;102478.50;;;17.28
34125;BMP280;20110;53.120;5.786;2023-04-16T08:10:44;102469.84;;;17.22
34125;BMP280;20110;53.120;5.786;2023-04-16T08:13:10;102462.91;;;17.27
34125;BMP280;20110;53.120;5.786;2023-04-16T08:15:36;102457.44;;;17.06
34125;BMP280;20110;53.120;5.786;2023-04-16T08:18:02;102495.13;;;17.27
34125;BMP280;20110;53.120;5.786;2023-04-16T08:20:30;102506.59;;;17.27
34125;BMP280;20110;53.120;5.786;2023-04-16T08:22:56;102493.47;;;17.11
34125;BMP280;20110;53.120;5.786;2023-04-16T08:25:22;102502.06;;;17.22
34125;BMP280;20110;53.120;5.786;2023-04-16T08:27:49;102474.38;;;17.14
34125;BMP280;20110;53.120;5.786;2023-04-16T08:30:15;102482.22;;;17.25
34125;BMP280;20110;53.120;5.786;2023-04-16T08:32:42;102495.03;;;17.46
34125;BMP280;20110;53.120;5.786;2023-04-16T08:35:09;102480.25;;;17.39
34125;BMP280;20110;53.120;5.786;2023-04-16T08:37:35;102484.78;;;17.44
34125;BMP280;20110;53.120;5.786;2023-04-16T08:40:01;102499.13;;;17.60
34125;BMP280;20110;53.120;5.786;2023-04-16T08:45:18;102512.25;;;17.77
34125;BMP280;20110;53.120;5.786;2023-04-16T08:47:51;102507.78;;;17.79
34125;BMP280;20110;53.120;5.786;2023-04-16T08:50:23;102517.81;;;17.79
34125;BMP280;20110;53.120;5.786;2023-04-16T08:53:03;102522.59;;;17.73
34125;BMP280;20110;53.120;5.786;2023-04-16T08:55:54;102531.19;;;17.71
34125;BMP280;20110;53.120;5.786;2023-04-16T08:58:25;102505.97;;;17.61
34125;BMP280;20110;53.120;5.786;2023-04-16T09:00:54;102509.78;;;17.65
34125;BMP280;20110;53.120;5.786;2023-04-16T09:03:21;102524.63;;;17.80
34125;BMP280;20110;53.120;5.786;2023-04-16T09:05:49;102521.84;;;17.85
34125;BMP280;20110;53.120;5.786;2023-04-16T09:08:16;102526.66;;;18.00
34125;BMP280;20110;53.120;5.786;2023-04-16T09:10:43;102500.63;;;17.95
34125;BMP280;20110;53.120;5.786;2023-04-16T09:13:09;102522.28;;;18.10
34125;BMP280;20110;53.120;5.786;2023-04-16T09:15:36;102501.41;;;18.03
34125;BMP280;20110;53.120;5.786;2023-04-16T09:18:03;102504.78;;;18.17
34125;BMP280;20110;53.120;5.786;2023-04-16T09:20:29;102538.13;;;18.34
34125;BMP280;20110;53.120;5.786;2023-04-16T09:22:55;102513.25;;;18.21
34125;BMP280;20110;53.120;5.786;2023-04-16T09:25:23;102497.81;;;18.21
34125;BMP280;20110;53.120;5.786;2023-04-16T09:27:49;102502.25;;;18.32
34125;BMP280;20110;53.120;5.786;2023-04-16T09:30:24;102512.00;;;18.42
34125;BMP280;20110;53.120;5.786;2023-04-16T09:32:51;102529.94;;;18.61
34125;BMP280;20110;53.120;5.786;2023-04-16T09:35:18;102513.34;;;18.70
34125;BMP280;20110;53.120;5.786;2023-04-16T09:37:59;102519.53;;;18.85
34125;BMP280;20110;53.120;5.786;2023-04-16T09:40:26;102534.56;;;19.09
34125;BMP280;20110;53.120;5.786;2023-04-16T09:42:58;102539.28;;;19.16
34125;BMP280;20110;53.120;5.786;2023-04-16T09:45:30;102503.44;;;18.93
34125;BMP280;20110;53.120;5.786;2023-04-16T09:48:02;102522.66;;;19.25
34125;BMP280;20110;53.120;5.786;2023-04-16T09:50:29;102527.63;;;19.57
34125;BMP280;20110;53.120;5.786;2023-04-16T09:52:55;102452.97;;;19.29
34125;BMP280;20110;53.120;5.786;2023-04-16T09:55:26;102547.53;;;19.90
34125;BMP280;20110;53.120;5.786;2023-04-16T09:58:00;102542.28;;;19.77
34125;BMP280;20110;53.120;5.786;2023-04-16T10:00:29;102517.03;;;19.52
34125;BMP280;20110;53.120;5.786;2023-04-16T10:03:04;102537.94;;;19.74
34125;BMP280;20110;53.120;5.786;2023-04-16T10:05:30;102515.47;;;19.72
34125;BMP280;20110;53.120;5.786;2023-04-16T10:07:59;102498.00;;;19.57
34125;BMP280;20110;53.120;5.786;2023-04-16T10:10:27;102542.63;;;19.81
34125;BMP280;20110;53.120;5.786;2023-04-16T10:12:54;102557.31;;;19.73
34125;BMP280;20110;53.120;5.786;2023-04-16T10:15:21;102548.13;;;19.60
34125;BMP280;20110;53.120;5.786;2023-04-16T10:17:47;102529.16;;;19.38
34125;BMP280;20110;53.120;5.786;2023-04-16T10:20:15;102514.34;;;19.16
34125;BMP280;20110;53.120;5.786;2023-04-16T10:22:42;102544.13;;;19.46
34125;BMP280;20110;53.120;5.786;2023-04-16T10:25:10;102524.53;;;19.46
34125;BMP280;20110;53.120;5.786;2023-04-16T10:27:37;102550.56;;;19.79
34125;BMP280;20110;53.120;5.786;2023-04-16T10:30:04;102563.66;;;19.83
34125;BMP280;20110;53.120;5.786;2023-04-16T10:32:32;102529.69;;;19.72
34125;BMP280;20110;53.120;5.786;2023-04-16T10:34:59;102540.97;;;19.70
34125;BMP280;20110;53.120;5.786;2023-04-16T10:37:29;102544.75;;;19.75
34125;BMP280;20110;53.120;5.786;2023-04-16T10:39:57;102561.53;;;19.89
34125;BMP280;20110;53.120;5.786;2023-04-16T10:42:24;102571.44;;;19.94
34125;BMP280;20110;53.120;5.786;2023-04-16T10:44:50;102554.81;;;19.75
34125;BMP280;20110;53.120;5.786;2023-04-16T10:47:16;102558.25;;;19.75
34125;BMP280;20110;53.120;5.786;2023-04-16T10:49:43;102485.78;;;19.20
34125;BMP280;20110;53.120;5.786;2023-04-16T10:52:15;102572.84;;;19.80
34125;BMP280;20110;53.120;5.786;2023-04-16T10:54:45;102570.88;;;19.80
34125;BMP280;20110;53.120;5.786;2023-04-16T10:57:18;102568.16;;;19.80
34125;BMP280;20110;53.120;5.786;2023-04-16T10:59:45;102572.09;;;19.72
34125;BMP280;20110;53.120;5.786;2023-04-16T11:02:16;102549.72;;;19.48
34125;BMP280;20110;53.120;5.786;2023-04-16T11:04:44;102534.56;;;19.38
34125;BMP280;20110;53.120;5.786;2023-04-16T11:07:22;102569.75;;;19.76
34125;BMP280;20110;53.120;5.786;2023-04-16T11:10:03;102521.88;;;19.61
34125;BMP280;20110;53.120;5.786;2023-04-16T11:12:38;102572.69;;;20.08
34125;BMP280;20110;53.120;5.786;2023-04-16T11:15:06;102579.94;;;20.28
34125;BMP280;20110;53.120;5.786;2023-04-16T11:17:48;102566.09;;;20.17
34125;BMP280;20110;53.120;5.786;2023-04-16T11:20:19;102553.16;;;20.15
34125;BMP280;20110;53.120;5.786;2023-04-16T11:22:53;102576.91;;;20.47
34125;BMP280;20110;53.120;5.786;2023-04-16T11:25:28;102577.25;;;20.28
34125;BMP280;20110;53.120;5.786;2023-04-16T11:27:56;102581.91;;;20.13
34125;BMP280;20110;53.120;5.786;2023-04-16T11:30:34;102565.28;;;19.78
34125;BMP280;20110;53.120;5.786;2023-04-16T11:33:10;102586.91;;;20.01
34125;BMP280;20110;53.120;5.786;2023-04-16T11:35:37;102560.13;;;19.95
34125;BMP280;20110;53.120;5.786;2023-04-16T11:38:07;102583.72;;;20.18
34125;BMP280;20110;53.120;5.786;2023-04-16T11:40:34;102574.16;;;20.17
34125;BMP280;20110;53.120;5.786;2023-04-16T11:43:19;102587.31;;;20.28
34125;BMP280;20110;53.120;5.786;2023-04-16T11:45:59;102575.47;;;20.23
34125;BMP280;20110;53.120;5.786;2023-04-16T11:48:49;102598.16;;;20.43
34125;BMP280;20110;53.120;5.786;2023-04-16T11:51:16;102599.94;;;20.48
34125;BMP280;20110;53.120;5.786;2023-04-16T11:53:52;102597.06;;;20.38
34125;BMP280;20110;53.120;5.786;2023-04-16T11:56:31;102583.72;;;20.18
34125;BMP280;20110;53.120;5.786;2023-04-16T11:59:15;102574.84;;;19.94
34125;BMP280;20110;53.120;5.786;2023-04-16T12:01:46;102558.31;;;19.90
34125;BMP280;20110;53.120;5.786;2023-04-16T12:04:15;102578.47;;;20.12
34125;BMP280;20110;53.120;5.786;2023-04-16T12:07:13;102593.06;;;20.24
34125;BMP280;20110;53.120;5.786;2023-04-16T12:09:41;102605.84;;;20.39
34125;BMP280;20110;53.120;5.786;2023-04-16T12:12:30;102604.09;;;20.49
34125;BMP280;20110;53.120;5.786;2023-04-16T12:14:57;102608.56;;;20.92
34125;BMP280;20110;53.120;5.786;2023-04-16T12:17:31;102574.91;;;21.01
34125;BMP280;20110;53.120;5.786;2023-04-16T12:20:02;102593.75;;;21.31
34125;BMP280;20110;53.120;5.786;2023-04-16T12:22:36;102604.50;;;21.46
34125;BMP280;20110;53.120;5.786;2023-04-16T12:25:11;102522.31;;;21.02
34125;BMP280;20110;53.120;5.786;2023-04-16T12:30:22;102595.38;;;21.66
34125;BMP280;20110;53.120;5.786;2023-04-16T12:32:52;102601.75;;;21.94
34125;BMP280;20110;53.120;5.786;2023-04-16T12:35:32;102601.59;;;22.41
34125;BMP280;20110;53.120;5.786;2023-04-16T12:37:59;102602.88;;;22.82
34125;BMP280;20110;53.120;5.786;2023-04-16T12:40:27;102600.69;;;23.15
34125;BMP280;20110;53.120;5.786;2023-04-16T12:42:54;102596.72;;;23.16
34125;BMP280;20110;53.120;5.786;2023-04-16T12:45:23;102556.56;;;22.71
34125;BMP280;20110;53.120;5.786;2023-04-16T12:47:55;102590.03;;;22.83
34125;BMP280;20110;53.120;5.786;2023-04-16T12:50:22;102605.31;;;22.88
34125;BMP280;20110;53.120;5.786;2023-04-16T12:52:48;102587.00;;;22.61
34125;BMP280;20110;53.120;5.786;2023-04-16T12:55:15;102577.22;;;22.41
34125;BMP280;20110;53.120;5.786;2023-04-16T12:57:41;102609.00;;;22.41
34125;BMP280;20110;53.120;5.786;2023-04-16T13:00:10;102585.66;;;22.03
34125;BMP280;20110;53.120;5.786;2023-04-16T13:02:37;102622.38;;;22.14
34125;BMP280;20110;53.120;5.786;2023-04-16T13:05:03;102571.28;;;21.61
34125;BMP280;20110;53.120;5.786;2023-04-16T13:07:29;102599.94;;;21.56
34125;BMP280;20110;53.120;5.786;2023-04-16T13:09:56;102544.25;;;21.13
34125;BMP280;20110;53.120;5.786;2023-04-16T13:12:22;102593.44;;;21.59
34125;BMP280;20110;53.120;5.786;2023-04-16T13:14:48;102608.50;;;21.77
34125;BMP280;20110;53.120;5.786;2023-04-16T13:17:14;102613.56;;;21.73
34125;BMP280;20110;53.120;5.786;2023-04-16T13:19:40;102622.50;;;21.91
34125;BMP280;20110;53.120;5.786;2023-04-16T13:22:06;102617.03;;;21.99
34125;BMP280;20110;53.120;5.786;2023-04-16T13:24:33;102588.03;;;21.92
34125;BMP280;20110;53.120;5.786;2023-04-16T13:26:59;102607.19;;;22.18
34125;BMP280;20110;53.120;5.786;2023-04-16T13:29:25;102607.44;;;22.38
34125;BMP280;20110;53.120;5.786;2023-04-16T13:31:51;102572.50;;;22.25
34125;BMP280;20110;53.120;5.786;2023-04-16T13:34:17;102597.97;;;22.63
34125;BMP280;20110;53.120;5.786;2023-04-16T13:36:43;102599.81;;;22.61
34125;BMP280;20110;53.120;5.786;2023-04-16T13:39:09;102591.47;;;22.42
34125;BMP280;20110;53.120;5.786;2023-04-16T13:41:37;102611.69;;;22.66
34125;BMP280;20110;53.120;5.786;2023-04-16T13:44:03;102585.81;;;22.72
34125;BMP280;20110;53.120;5.786;2023-04-16T13:46:29;102586.94;;;22.86
34125;BMP280;20110;53.120;5.786;2023-04-16T13:48:55;102605.41;;;22.80
34125;BMP280;20110;53.120;5.786;2023-04-16T13:51:21;102596.25;;;22.58
34125;BMP280;20110;53.120;5.786;2023-04-16T13:53:47;102591.44;;;22.49
34125;BMP280;20110;53.120;5.786;2023-04-16T13:56:13;102585.34;;;22.16
34125;BMP280;20110;53.120;5.786;2023-04-16T13:58:39;102545.44;;;21.67
34125;BMP280;20110;53.120;5.786;2023-04-16T14:01:06;102591.88;;;21.81
34125;BMP280;20110;53.120;5.786;2023-04-16T14:03:32;102580.97;;;21.71